createdAt,value
2023-02-17T00:00:07.921Z,13.40
2023-02-17T00:02:36.612Z,13.83
2023-02-17T00:05:04.904Z,12.93
2023-02-17T00:07:33.138Z,14.47
2023-02-17T00:10:01.828Z,13.70
2023-02-17T00:12:30.003Z,12.93
2023-02-17T00:14:59.601Z,13.57
2023-02-17T00:17:27.719Z,14.07
2023-02-17T00:19:56.377Z,13.70
2023-02-17T00:22:24.483Z,13.73
2023-02-17T00:24:52.633Z,13.83
2023-02-17T00:27:20.782Z,14.00
2023-02-17T00:29:48.871Z,14.07
2023-02-17T00:32:18.368Z,13.60
2023-02-17T00:34:46.620Z,13.73
2023-02-17T00:37:14.716Z,14.77
2023-02-17T00:39:42.905Z,14.10
2023-02-17T00:42:10.999Z,13.80
2023-02-17T00:44:39.102Z,13.80
2023-02-17T00:47:07.271Z,11.80
2023-02-17T00:49:36.827Z,13.30
2023-02-17T00:52:04.977Z,13.50
2023-02-17T00:54:33.029Z,12.90
2023-02-17T00:57:01.136Z,11.43
2023-02-17T00:59:29.272Z,11.53
2023-02-17T01:01:57.367Z,11.57
2023-02-17T01:04:25.613Z,10.13
2023-02-17T01:06:55.219Z,10.07
2023-02-17T01:09:23.426Z,9.93
2023-02-17T01:11:51.545Z,9.43
2023-02-17T01:14:19.617Z,8.83
2023-02-17T01:16:49.465Z,8.10
2023-02-17T01:19:19.384Z,7.70
2023-02-17T01:21:47.752Z,7.30
2023-02-17T01:24:17.208Z,7.17
2023-02-17T01:26:45.262Z,7.50
2023-02-17T01:29:13.320Z,7.17
2023-02-17T01:31:41.701Z,7.07
2023-02-17T01:34:11.436Z,7.87
2023-02-17T01:36:39.530Z,6.80
2023-02-17T01:39:07.647Z,6.03
2023-02-17T01:41:37.090Z,6.27
2023-02-17T01:44:11.357Z,7.00
2023-02-17T01:46:40.635Z,7.23
2023-02-17T01:49:25.042Z,6.60
2023-02-17T01:51:57.554Z,7.77
2023-02-17T01:54:31.515Z,7.33
2023-02-17T01:57:03.033Z,7.80
2023-02-17T01:59:32.300Z,7.57
2023-02-17T02:02:04.034Z,7.90
2023-02-17T02:04:35.865Z,8.83
2023-02-17T02:07:05.110Z,8.03
2023-02-17T02:09:37.582Z,9.03
2023-02-17T02:12:19.914Z,8.63
2023-02-17T02:14:49.009Z,9.53
2023-02-17T02:17:27.607Z,9.10
2023-02-17T02:20:13.172Z,8.93
2023-02-17T02:23:26.474Z,10.10
2023-02-17T02:26:30.704Z,9.40
2023-02-17T02:29:18.901Z,9.03
2023-02-17T02:31:56.309Z,8.83
2023-02-17T02:34:31.649Z,8.60
2023-02-17T02:37:05.314Z,10.00
2023-02-17T02:39:39.560Z,9.43
2023-02-17T02:42:11.222Z,9.67
2023-02-17T02:44:39.306Z,9.83
2023-02-17T02:47:28.468Z,9.00
2023-02-17T02:49:58.098Z,9.43
2023-02-17T02:52:32.368Z,9.63
2023-02-17T02:55:04.735Z,9.20
2023-02-17T02:57:41.932Z,9.00
2023-02-17T03:08:28.983Z,9.13
2023-02-17T03:10:57.550Z,9.40
2023-02-17T03:13:26.076Z,8.43
2023-02-17T03:15:54.456Z,9.93
2023-02-17T03:18:22.532Z,9.33
2023-02-17T03:20:54.132Z,9.33
2023-02-17T03:23:23.595Z,9.60
2023-02-17T03:25:51.658Z,9.07
2023-02-17T03:28:19.733Z,8.97
2023-02-17T03:30:47.906Z,9.47
2023-02-17T03:33:16.089Z,9.30
2023-02-17T03:35:44.138Z,9.50
2023-02-17T03:38:12.246Z,8.83
2023-02-17T03:40:41.923Z,9.93
2023-02-17T03:43:10.031Z,8.83
2023-02-17T03:45:38.489Z,9.23
2023-02-17T03:48:06.882Z,8.90
2023-02-17T03:50:34.946Z,11.00
2023-02-17T03:53:03.030Z,9.93
2023-02-17T03:55:31.167Z,10.43
2023-02-17T03:58:00.616Z,11.37
2023-02-17T04:00:28.760Z,11.10
2023-02-17T04:02:57.148Z,11.97
2023-02-17T04:05:25.268Z,11.77
2023-02-17T04:07:53.567Z,11.93
2023-02-17T04:10:21.778Z,12.70
2023-02-17T04:12:49.890Z,14.40
2023-02-17T04:15:19.374Z,13.63
2023-02-17T04:17:47.459Z,14.50
2023-02-17T04:20:15.537Z,12.77
2023-02-17T04:22:43.599Z,13.97
2023-02-17T04:25:11.712Z,12.87
2023-02-17T04:27:39.773Z,13.53
2023-02-17T04:30:10.849Z,14.40
2023-02-17T04:32:41.683Z,12.97
2023-02-17T04:35:09.917Z,13.23
2023-02-17T04:37:37.974Z,13.73
2023-02-17T04:40:10.453Z,12.63
2023-02-17T04:42:38.741Z,12.50
2023-02-17T04:45:08.175Z,12.47
2023-02-17T04:47:36.660Z,12.80
2023-02-17T04:50:09.136Z,13.20
2023-02-17T04:52:37.390Z,13.27
2023-02-17T04:55:06.395Z,13.07
2023-02-17T04:57:35.109Z,13.47
2023-02-17T05:00:03.262Z,12.17
2023-02-17T05:02:31.568Z,12.73
2023-02-17T05:04:59.788Z,12.53
2023-02-17T05:07:29.384Z,13.73
2023-02-17T05:09:57.613Z,13.43
2023-02-17T05:12:25.695Z,12.57
2023-02-17T05:14:53.881Z,12.20
2023-02-17T05:17:22.047Z,12.43
2023-02-17T05:19:52.891Z,12.30
2023-02-17T05:22:20.994Z,12.77
2023-02-17T05:24:51.016Z,13.40
2023-02-17T05:27:19.342Z,13.67
2023-02-17T05:29:47.746Z,13.83
2023-02-17T05:32:16.086Z,15.40
2023-02-17T05:34:44.367Z,14.90
2023-02-17T05:37:12.812Z,13.43
2023-02-17T05:39:40.969Z,13.93
2023-02-17T05:42:10.454Z,14.07
2023-02-17T05:44:38.534Z,14.37
2023-02-17T05:47:06.737Z,14.90
2023-02-17T05:49:34.803Z,14.73
2023-02-17T05:52:03.563Z,14.70
2023-02-17T05:54:31.636Z,15.73
2023-02-17T05:56:59.710Z,15.07
2023-02-17T05:59:29.368Z,14.30
2023-02-17T06:01:57.742Z,15.07
2023-02-17T06:04:25.917Z,13.67
2023-02-17T06:06:54.131Z,14.80
2023-02-17T06:09:22.507Z,14.90
2023-02-17T06:11:50.990Z,14.13
2023-02-17T06:14:19.164Z,15.33
2023-02-17T06:16:48.851Z,15.27
2023-02-17T06:19:17.197Z,14.10
2023-02-17T06:21:45.429Z,15.33
2023-02-17T06:24:13.783Z,14.27
2023-02-17T06:26:41.952Z,14.23
2023-02-17T06:29:10.118Z,14.70
2023-02-17T06:31:38.258Z,14.17
2023-02-17T06:34:07.997Z,15.27
2023-02-17T06:36:36.228Z,14.97
2023-02-17T06:39:04.600Z,13.13
2023-02-17T06:41:32.708Z,14.33
2023-02-17T06:44:00.858Z,12.53
2023-02-17T06:46:28.988Z,13.77
2023-02-17T06:48:57.090Z,13.70
2023-02-17T06:51:26.672Z,14.57
2023-02-17T06:53:54.857Z,13.50
2023-02-17T06:56:23.213Z,13.77
2023-02-17T06:58:51.395Z,14.43
2023-02-17T07:01:22.103Z,14.03
2023-02-17T07:03:50.544Z,14.53
2023-02-17T07:06:18.668Z,14.13
2023-02-17T07:08:48.498Z,16.07
2023-02-17T07:11:17.438Z,14.83
2023-02-17T07:13:45.720Z,15.03
2023-02-17T07:16:14.915Z,14.17
2023-02-17T07:18:43.440Z,14.33
2023-02-17T07:28:54.846Z,15.20
2023-02-17T07:31:23.185Z,14.93
2023-02-17T07:33:51.304Z,13.80
2023-02-17T07:36:19.873Z,14.83
2023-02-17T07:38:47.996Z,13.47
2023-02-17T07:41:18.751Z,13.23
2023-02-17T07:43:47.548Z,13.80
2023-02-17T07:46:17.133Z,14.20
2023-02-17T07:48:45.276Z,12.27
2023-02-17T07:51:15.599Z,12.83
2023-02-17T07:53:44.060Z,13.00
2023-02-17T07:56:14.621Z,12.87
2023-02-17T07:58:44.597Z,12.77
2023-02-17T08:01:14.982Z,12.30
2023-02-17T08:03:44.684Z,13.17
2023-02-17T08:06:13.834Z,13.53
2023-02-17T08:08:59.173Z,12.07
2023-02-17T08:11:46.496Z,11.60
2023-02-17T08:14:15.811Z,12.63
2023-02-17T08:16:43.976Z,13.07
2023-02-17T08:19:13.479Z,12.63
2023-02-17T08:21:41.690Z,12.53
2023-02-17T08:24:09.819Z,12.90
2023-02-17T08:26:38.157Z,12.40
2023-02-17T08:29:06.264Z,11.70
2023-02-17T08:31:36.577Z,11.40
2023-02-17T08:34:06.988Z,12.33
2023-02-17T08:36:37.434Z,12.70
2023-02-17T08:39:06.774Z,11.70
2023-02-17T08:41:37.048Z,10.67
2023-02-17T08:44:09.518Z,10.90
2023-02-17T08:46:38.417Z,11.13
2023-02-17T08:49:07.759Z,12.17
2023-02-17T08:51:37.834Z,12.27
2023-02-17T08:54:07.825Z,11.43
2023-02-17T08:56:37.600Z,11.13
2023-02-17T08:59:06.135Z,10.83
2023-02-17T09:01:34.610Z,10.43
2023-02-17T09:04:04.464Z,11.27
2023-02-17T09:06:39.101Z,10.50
2023-02-17T09:09:09.046Z,11.13
2023-02-17T09:11:37.224Z,11.03
2023-02-17T09:14:06.413Z,11.13
2023-02-17T09:16:34.514Z,11.63
2023-02-17T09:19:02.724Z,10.17
2023-02-17T09:21:30.889Z,10.03
2023-02-17T09:24:00.481Z,10.10
2023-02-17T09:26:28.604Z,9.90
2023-02-17T09:28:58.094Z,10.63
2023-02-17T09:31:28.090Z,9.67
2023-02-17T09:33:56.560Z,8.97
2023-02-17T09:36:28.393Z,9.67
2023-02-17T09:38:56.943Z,8.23
2023-02-17T09:41:39.305Z,7.50
2023-02-17T09:44:14.989Z,8.33
2023-02-17T09:47:00.598Z,8.20
2023-02-17T09:49:36.184Z,7.53
2023-02-17T09:52:09.585Z,7.27
2023-02-17T09:54:42.610Z,6.73
2023-02-17T09:57:19.728Z,5.50
2023-02-17T09:59:52.258Z,6.27
2023-02-17T10:02:27.039Z,5.43
2023-02-17T10:04:58.368Z,5.33
2023-02-17T10:07:31.672Z,4.37
2023-02-17T10:10:06.773Z,4.47
2023-02-17T10:12:41.267Z,4.13
2023-02-17T10:15:13.649Z,4.50
2023-02-17T10:17:49.815Z,5.10
2023-02-17T10:20:21.682Z,4.47
2023-02-17T10:22:55.965Z,4.17
2023-02-17T10:25:39.797Z,4.27
2023-02-17T10:28:18.337Z,4.73
2023-02-17T10:30:53.160Z,4.60
2023-02-17T10:33:29.027Z,4.13
2023-02-17T10:36:06.616Z,4.37
2023-02-17T10:38:47.374Z,3.30
2023-02-17T10:41:18.921Z,3.70
2023-02-17T10:43:50.065Z,4.40
2023-02-17T10:46:24.080Z,4.07
2023-02-17T10:48:54.782Z,3.70
2023-02-17T10:51:26.624Z,4.00
2023-02-17T10:53:59.801Z,3.80
2023-02-17T10:56:34.720Z,4.00
2023-02-17T10:59:08.899Z,3.53
2023-02-17T11:01:38.228Z,3.60
2023-02-17T11:04:08.856Z,3.80
2023-02-17T11:06:42.833Z,3.40
2023-02-17T11:09:21.239Z,3.83
2023-02-17T11:11:59.929Z,3.13
2023-02-17T11:14:32.013Z,3.00
2023-02-17T11:17:02.568Z,3.20
2023-02-17T11:19:34.037Z,3.43
2023-02-17T11:22:04.047Z,3.30
2023-02-17T11:24:34.459Z,3.40
2023-02-17T11:27:05.681Z,3.17
2023-02-17T11:29:35.319Z,3.10
2023-02-17T11:32:07.312Z,3.07
2023-02-17T11:34:37.208Z,2.57
2023-02-17T11:37:21.320Z,3.10
2023-02-17T11:39:51.161Z,2.70
2023-02-17T11:42:23.720Z,2.80
2023-02-17T11:44:54.954Z,2.40
2023-02-17T11:47:34.953Z,2.50
2023-02-17T11:50:40.921Z,2.57
2023-02-17T11:53:30.795Z,2.50
2023-02-17T11:56:12.943Z,3.10
2023-02-17T11:59:16.219Z,2.77
2023-02-17T12:02:05.075Z,3.50
2023-02-17T12:04:34.397Z,3.30
2023-02-17T12:07:24.865Z,3.10
2023-02-17T12:10:04.766Z,3.00
2023-02-17T12:12:45.313Z,2.93
2023-02-17T12:15:30.094Z,3.07
2023-02-17T12:18:09.742Z,3.10
2023-02-17T12:20:47.407Z,3.10
2023-02-17T12:23:42.753Z,3.10
2023-02-17T12:26:20.410Z,2.90
2023-02-17T12:29:03.383Z,2.60
2023-02-17T12:31:49.753Z,3.20
2023-02-17T12:34:26.714Z,3.27
2023-02-17T12:36:57.716Z,2.97
2023-02-17T12:39:29.965Z,2.70
2023-02-17T12:42:03.466Z,3.53
2023-02-17T12:44:36.617Z,3.60
2023-02-17T12:47:11.513Z,3.40
2023-02-17T12:49:46.821Z,3.67
2023-02-17T12:52:19.490Z,3.47
2023-02-17T12:54:52.751Z,3.83
2023-02-17T12:57:23.608Z,4.33
2023-02-17T12:59:54.609Z,4.00
2023-02-17T13:02:24.486Z,3.90
2023-02-17T13:04:55.444Z,5.27
2023-02-17T13:07:43.878Z,4.87
2023-02-17T13:10:30.041Z,4.87
2023-02-17T13:13:01.321Z,4.20
2023-02-17T13:15:33.786Z,5.17
2023-02-17T13:18:03.679Z,4.33
2023-02-17T13:20:58.785Z,5.00
2023-02-17T13:23:40.195Z,4.43
2023-02-17T13:26:34.701Z,4.10
2023-02-17T13:29:34.618Z,4.10
2023-02-17T13:32:05.032Z,5.53
2023-02-17T13:34:35.927Z,3.97
2023-02-17T13:37:20.630Z,4.10
2023-02-17T13:39:48.740Z,4.37
2023-02-17T13:42:35.794Z,4.77
2023-02-17T13:45:12.564Z,4.33
2023-02-17T13:47:42.104Z,4.93
2023-02-17T13:50:29.131Z,4.67
2023-02-17T13:52:59.007Z,5.23
2023-02-17T13:55:27.489Z,5.33
2023-02-17T13:57:57.084Z,5.07
2023-02-17T14:00:28.098Z,5.33
2023-02-17T14:02:58.468Z,5.27
2023-02-17T14:05:36.479Z,4.70
2023-02-17T14:08:13.133Z,4.93
2023-02-17T14:10:41.974Z,5.37
2023-02-17T14:13:12.205Z,4.70
2023-02-17T14:15:51.730Z,4.40
2023-02-17T14:18:30.766Z,4.50
2023-02-17T14:21:07.334Z,4.00
2023-02-17T14:23:45.840Z,4.23
2023-02-17T14:26:16.948Z,3.53
2023-02-17T14:28:54.991Z,3.73
2023-02-17T14:31:24.327Z,4.00
2023-02-17T14:34:01.553Z,4.23
2023-02-17T14:36:33.539Z,3.63
2023-02-17T14:39:05.366Z,4.13
2023-02-17T14:41:33.538Z,4.00
2023-02-17T14:44:02.292Z,4.10
2023-02-17T14:46:30.452Z,3.80
2023-02-17T14:48:58.572Z,3.77
2023-02-17T14:51:32.281Z,4.03
2023-02-17T14:54:02.453Z,4.17
2023-02-17T14:56:36.134Z,3.17
2023-02-17T14:59:04.525Z,3.80
2023-02-17T15:01:32.680Z,3.33
2023-02-17T15:04:02.857Z,3.00
2023-02-17T15:06:39.371Z,3.33
2023-02-17T15:09:14.183Z,3.33
2023-02-17T15:11:45.764Z,3.30
2023-02-17T15:14:15.895Z,3.10
2023-02-17T15:16:44.364Z,3.13
2023-02-17T15:19:13.335Z,3.10
2023-02-17T15:21:46.591Z,3.17
2023-02-17T15:24:17.665Z,3.53
2023-02-17T15:26:48.058Z,3.10
2023-02-17T15:29:17.952Z,2.97
2023-02-17T15:31:46.929Z,2.87
2023-02-17T15:34:17.459Z,3.70
2023-02-17T15:36:46.225Z,3.93
2023-02-17T15:39:15.878Z,3.27
2023-02-17T15:41:46.989Z,3.47
2023-02-17T15:44:18.694Z,3.37
2023-02-17T15:46:47.880Z,3.33
2023-02-17T15:49:16.016Z,3.67
2023-02-17T15:51:44.090Z,3.80
2023-02-17T15:54:13.011Z,3.53
2023-02-17T15:56:45.310Z,3.37
2023-02-17T15:59:19.506Z,3.77
2023-02-17T16:01:47.638Z,3.53
2023-02-17T16:04:16.611Z,3.40
2023-02-17T16:06:44.970Z,3.30
2023-02-17T16:09:15.516Z,3.63
2023-02-17T16:11:48.495Z,3.20
2023-02-17T16:14:25.744Z,4.53
2023-02-17T16:16:55.304Z,3.60
2023-02-17T16:19:23.616Z,4.20
2023-02-17T16:25:44.652Z,4.33
2023-02-17T16:28:16.623Z,4.10
2023-02-17T16:30:46.810Z,3.70
2023-02-17T16:33:15.102Z,3.67
2023-02-17T16:35:43.630Z,3.30
2023-02-17T16:38:17.033Z,3.33
2023-02-17T16:40:48.222Z,4.00
2023-02-17T16:43:17.723Z,3.10
2023-02-17T16:45:55.101Z,3.57
2023-02-17T16:48:24.680Z,3.33
2023-02-17T16:50:53.091Z,3.33
2023-02-17T16:53:22.005Z,3.40
2023-02-17T16:55:55.127Z,3.83
2023-02-17T16:58:25.260Z,4.03
2023-02-17T17:00:56.255Z,3.03
2023-02-17T17:03:24.664Z,2.97
2023-02-17T17:05:53.746Z,2.90
2023-02-17T17:08:22.457Z,3.27
2023-02-17T17:10:50.860Z,3.80
2023-02-17T17:13:18.977Z,3.37
2023-02-17T17:15:47.500Z,3.97
2023-02-17T17:18:21.118Z,4.10
2023-02-17T17:20:49.915Z,3.80
2023-02-17T17:23:19.203Z,3.87
2023-02-17T17:25:48.674Z,4.27
2023-02-17T17:28:18.848Z,4.33
2023-02-17T17:30:47.841Z,4.03
2023-02-17T17:33:16.261Z,5.10
2023-02-17T17:35:45.862Z,4.93
2023-02-17T17:38:16.490Z,5.03
2023-02-17T17:40:50.247Z,5.10
2023-02-17T17:43:20.210Z,5.47
2023-02-17T17:45:48.820Z,5.43
2023-02-17T17:48:18.643Z,6.07
2023-02-17T17:50:50.038Z,6.03
2023-02-17T17:53:18.173Z,5.77
2023-02-17T17:55:48.212Z,5.73
2023-02-17T17:58:17.256Z,5.60
2023-02-17T18:00:45.408Z,5.00
2023-02-17T18:03:13.566Z,5.83
2023-02-17T18:05:41.711Z,5.87
2023-02-17T18:08:11.310Z,6.27
2023-02-17T18:10:40.255Z,5.20
2023-02-17T18:13:09.637Z,6.30
2023-02-17T18:15:37.917Z,5.40
2023-02-17T18:18:06.724Z,6.03
2023-02-17T18:20:34.854Z,4.80
2023-02-17T18:23:02.997Z,6.30
2023-02-17T18:25:32.603Z,5.40
2023-02-17T18:28:00.743Z,5.53
2023-02-17T18:30:29.479Z,6.77
2023-02-17T18:32:57.721Z,6.53
2023-02-17T18:35:25.787Z,6.67
2023-02-17T18:37:54.135Z,6.63
2023-02-17T18:40:23.062Z,6.20
2023-02-17T18:42:52.777Z,5.73
2023-02-17T18:45:21.043Z,6.00
2023-02-17T18:47:49.319Z,5.70
2023-02-17T18:50:18.005Z,6.03
2023-02-17T18:52:46.104Z,6.23
2023-02-17T18:55:14.912Z,6.70
2023-02-17T18:57:44.873Z,6.03
2023-02-17T19:00:17.002Z,5.60
2023-02-17T19:02:45.378Z,6.60
2023-02-17T19:05:14.815Z,5.70
2023-02-17T19:07:43.081Z,6.27
2023-02-17T19:10:12.477Z,6.10
2023-02-17T19:12:40.944Z,6.77
2023-02-17T19:15:09.440Z,7.30
2023-02-17T19:17:38.888Z,6.30
2023-02-17T19:20:08.114Z,6.27
2023-02-17T19:22:37.345Z,6.87
2023-02-17T19:25:06.122Z,7.27
2023-02-17T19:27:34.431Z,7.73
2023-02-17T19:30:02.577Z,7.33
2023-02-17T19:32:30.675Z,7.60
2023-02-17T19:35:00.149Z,6.70
2023-02-17T19:37:28.255Z,7.20
2023-02-17T19:39:56.511Z,7.47
2023-02-17T19:42:24.810Z,7.40
2023-02-17T19:44:52.936Z,6.73
2023-02-17T19:47:21.101Z,6.63
2023-02-17T19:49:49.221Z,6.43
2023-02-17T19:52:19.749Z,6.93
2023-02-17T19:54:49.413Z,6.77
2023-02-17T19:57:18.451Z,7.90
2023-02-17T19:59:46.836Z,7.40
2023-02-17T20:02:15.630Z,7.47
2023-02-17T20:04:44.661Z,8.20
2023-02-17T20:07:12.872Z,7.93
2023-02-17T20:09:42.368Z,8.80
2023-02-17T20:12:10.459Z,9.30
2023-02-17T20:14:38.811Z,8.27
2023-02-17T20:17:07.038Z,9.60
2023-02-17T20:19:38.454Z,9.10
2023-02-17T20:22:06.595Z,9.57
2023-02-17T20:24:35.665Z,9.17
2023-02-17T20:27:05.293Z,10.13
2023-02-17T20:29:34.368Z,9.97
2023-02-17T20:32:03.202Z,9.47
2023-02-17T20:34:33.555Z,9.10
2023-02-17T20:37:01.705Z,10.13
2023-02-17T20:39:29.961Z,9.93
2023-02-17T20:41:58.146Z,9.53
2023-02-17T20:44:28.174Z,10.33
2023-02-17T20:46:56.704Z,11.27
2023-02-17T20:49:25.295Z,9.93
2023-02-17T20:51:54.125Z,9.63
2023-02-17T20:54:24.683Z,9.80
2023-02-17T20:56:53.108Z,10.73
2023-02-17T20:59:21.718Z,11.10
2023-02-17T21:01:51.205Z,10.87
2023-02-17T21:04:19.289Z,10.60
2023-02-17T21:06:47.498Z,10.50
2023-02-17T21:09:19.192Z,10.50
2023-02-17T21:11:47.895Z,11.10
2023-02-17T21:14:16.395Z,10.97
2023-02-17T21:16:45.125Z,9.90
2023-02-17T21:19:14.994Z,10.60
2023-02-17T21:21:43.119Z,9.97
2023-02-17T21:24:11.277Z,9.90
2023-02-17T21:26:39.732Z,10.63
2023-02-17T21:29:08.146Z,10.70
2023-02-17T21:31:37.145Z,9.53
2023-02-17T21:34:05.580Z,10.87
2023-02-17T21:36:35.081Z,10.40
2023-02-17T21:39:04.273Z,10.43
2023-02-17T21:41:32.948Z,9.80
2023-02-17T21:44:18.454Z,10.43
2023-02-17T21:46:47.048Z,10.03
2023-02-17T21:49:15.208Z,11.67
2023-02-17T21:51:45.077Z,10.93
2023-02-17T21:54:13.475Z,11.67
2023-02-17T21:56:41.875Z,11.03
2023-02-17T21:59:10.206Z,10.93
2023-02-17T22:01:38.586Z,10.67
2023-02-17T22:04:07.239Z,11.17
2023-02-17T22:06:37.415Z,12.83
2023-02-17T22:09:08.413Z,11.83
2023-02-17T22:11:39.381Z,12.20
2023-02-17T22:14:10.108Z,11.87
2023-02-17T22:16:38.585Z,13.23
2023-02-17T22:19:08.864Z,12.73
2023-02-17T22:21:37.078Z,14.00
2023-02-17T22:24:06.860Z,12.47
2023-02-17T22:26:34.936Z,13.47
2023-02-17T22:29:03.180Z,13.33
2023-02-17T22:31:32.134Z,14.23
2023-02-17T22:34:02.983Z,14.23
2023-02-17T22:36:34.612Z,15.47
2023-02-17T22:39:03.906Z,14.90
2023-02-17T22:41:35.030Z,15.47
2023-02-17T22:44:04.271Z,14.00
2023-02-17T22:46:32.843Z,14.63
2023-02-17T22:49:00.938Z,15.47
2023-02-17T22:51:31.419Z,15.13
2023-02-17T22:54:01.061Z,15.37
2023-02-17T22:56:30.013Z,15.50
2023-02-17T22:59:01.515Z,16.10
2023-02-17T23:01:31.339Z,16.80
2023-02-17T23:03:59.795Z,17.03
2023-02-17T23:06:30.581Z,15.60
2023-02-17T23:08:59.400Z,18.03
2023-02-17T23:11:47.249Z,17.10
2023-02-17T23:14:19.081Z,16.47
2023-02-17T23:16:47.569Z,17.13
2023-02-17T23:19:18.607Z,16.80
2023-02-17T23:21:49.040Z,18.37
2023-02-17T23:24:17.929Z,17.77
2023-02-17T23:26:47.504Z,17.33
2023-02-17T23:29:18.040Z,18.53
2023-02-17T23:31:46.443Z,17.87
2023-02-17T23:34:16.024Z,18.00
2023-02-17T23:36:45.772Z,17.83
2023-02-17T23:39:16.706Z,17.33
2023-02-17T23:41:45.566Z,18.77
2023-02-17T23:44:14.795Z,17.47
2023-02-17T23:46:44.868Z,17.63
2023-02-17T23:49:15.704Z,17.43
2023-02-17T23:51:44.382Z,17.17
2023-02-17T23:54:12.584Z,16.40
2023-02-17T23:56:40.954Z,17.60
2023-02-17T23:59:09.351Z,15.80
